North Hatfield, Massachusetts
Current Conditions -  °F | °C
As of 9:58 AM on Monday 24 Nov 2014 (Local Time) from KCEF Reporting Station
Drizzle Drizzle  
Wind Chill: 62°   Ceiling: 700
Heat Index: 62°   Visibility: 2.5mi
Dew Point: 60°   Wind: 16mph
Humidity: 94%   Direction: 190°S
Pressure: 29.67"   Gusts: 23mph
Location:  42.41°N, 72.62°W
Report Text: KCEF 241458Z 19014G20KT 2 1/2SM -DZ BR FEW003 BKN007 OVC010 17/16 A2967 RMK AO2A PK WND 19026/06 SLP054 P0002 60021 T01660156 55014
Loading
Personal Weather Stations






























Interactive Weather Map New forecast layout! Learn more

10-Day Weather Forecast

Advertisements
Track Severe Weather on mobile